sensor_id;sensor_type;location;lat;lon;timestamp;temperature;humidity
40516;DHT22;26216;53.724;9.898;2023-08-21T00:01:40;19.90;91.90
40516;DHT22;26216;53.724;9.898;2023-08-21T00:04:06;19.90;91.90
40516;DHT22;26216;53.724;9.898;2023-08-21T00:06:32;19.90;91.90
40516;DHT22;26216;53.724;9.898;2023-08-21T00:08:58;19.80;92.00
40516;DHT22;26216;53.724;9.898;2023-08-21T00:11:24;19.80;91.90
40516;DHT22;26216;53.724;9.898;2023-08-21T00:13:49;19.80;91.90
40516;DHT22;26216;53.724;9.898;2023-08-21T00:16:16;19.70;92.00
40516;DHT22;26216;53.724;9.898;2023-08-21T00:18:42;19.70;92.00
40516;DHT22;26216;53.724;9.898;2023-08-21T00:21:08;19.70;92.00
40516;DHT22;26216;53.724;9.898;2023-08-21T00:23:34;19.70;92.00
40516;DHT22;26216;53.724;9.898;2023-08-21T00:26:00;19.70;92.10
40516;DHT22;26216;53.724;9.898;2023-08-21T00:28:26;19.60;92.10
40516;DHT22;26216;53.724;9.898;2023-08-21T00:31:00;19.60;92.10
40516;DHT22;26216;53.724;9.898;2023-08-21T00:33:26;19.50;92.20
40516;DHT22;26216;53.724;9.898;2023-08-21T00:35:52;19.50;92.10
40516;DHT22;26216;53.724;9.898;2023-08-21T00:38:18;19.50;92.10
40516;DHT22;26216;53.724;9.898;2023-08-21T00:40:43;19.50;92.20
40516;DHT22;26216;53.724;9.898;2023-08-21T00:43:09;19.40;92.20
40516;DHT22;26216;53.724;9.898;2023-08-21T00:45:36;19.40;92.20
40516;DHT22;26216;53.724;9.898;2023-08-21T00:48:03;19.40;92.20
40516;DHT22;26216;53.724;9.898;2023-08-21T00:50:29;19.40;92.20
40516;DHT22;26216;53.724;9.898;2023-08-21T00:52:55;19.40;92.30
40516;DHT22;26216;53.724;9.898;2023-08-21T00:55:21;19.30;92.30
40516;DHT22;26216;53.724;9.898;2023-08-21T00:57:46;19.30;92.30
40516;DHT22;26216;53.724;9.898;2023-08-21T01:00:13;19.30;92.30
40516;DHT22;26216;53.724;9.898;2023-08-21T01:02:39;19.30;92.40
40516;DHT22;26216;53.724;9.898;2023-08-21T01:05:04;19.30;92.40
40516;DHT22;26216;53.724;9.898;2023-08-21T01:07:36;19.20;92.40
40516;DHT22;26216;53.724;9.898;2023-08-21T01:10:16;19.20;92.70
40516;DHT22;26216;53.724;9.898;2023-08-21T01:12:50;19.20;92.50
40516;DHT22;26216;53.724;9.898;2023-08-21T01:15:16;19.20;92.50
40516;DHT22;26216;53.724;9.898;2023-08-21T01:17:43;19.10;92.40
40516;DHT22;26216;53.724;9.898;2023-08-21T01:20:11;19.10;92.40
40516;DHT22;26216;53.724;9.898;2023-08-21T01:22:39;19.10;92.50
40516;DHT22;26216;53.724;9.898;2023-08-21T01:25:06;19.10;92.50
40516;DHT22;26216;53.724;9.898;2023-08-21T01:27:33;19.00;92.50
40516;DHT22;26216;53.724;9.898;2023-08-21T01:30:01;19.00;92.50
40516;DHT22;26216;53.724;9.898;2023-08-21T01:33:06;19.00;92.60
40516;DHT22;26216;53.724;9.898;2023-08-21T01:35:35;19.00;92.70
40516;DHT22;26216;53.724;9.898;2023-08-21T01:38:02;19.00;92.60
40516;DHT22;26216;53.724;9.898;2023-08-21T01:40:29;18.90;92.60
40516;DHT22;26216;53.724;9.898;2023-08-21T01:42:55;18.90;92.60
40516;DHT22;26216;53.724;9.898;2023-08-21T01:45:22;18.90;92.70
40516;DHT22;26216;53.724;9.898;2023-08-21T01:47:48;18.90;92.70
40516;DHT22;26216;53.724;9.898;2023-08-21T01:50:13;18.90;92.70
40516;DHT22;26216;53.724;9.898;2023-08-21T01:52:39;18.80;92.70
40516;DHT22;26216;53.724;9.898;2023-08-21T01:55:05;18.80;92.70
40516;DHT22;26216;53.724;9.898;2023-08-21T01:57:33;18.80;92.80
40516;DHT22;26216;53.724;9.898;2023-08-21T01:59:59;18.80;92.80
40516;DHT22;26216;53.724;9.898;2023-08-21T02:02:25;18.70;92.80
40516;DHT22;26216;53.724;9.898;2023-08-21T02:04:51;18.80;92.90
40516;DHT22;26216;53.724;9.898;2023-08-21T02:07:17;18.80;92.90
40516;DHT22;26216;53.724;9.898;2023-08-21T02:09:42;18.70;93.20
40516;DHT22;26216;53.724;9.898;2023-08-21T02:12:08;18.70;93.00
40516;DHT22;26216;53.724;9.898;2023-08-21T02:14:34;18.70;93.10
40516;DHT22;26216;53.724;9.898;2023-08-21T02:17:00;18.70;93.20
40516;DHT22;26216;53.724;9.898;2023-08-21T02:19:26;18.70;93.20
40516;DHT22;26216;53.724;9.898;2023-08-21T02:21:51;18.70;93.30
40516;DHT22;26216;53.724;9.898;2023-08-21T02:24:17;18.70;93.40
40516;DHT22;26216;53.724;9.898;2023-08-21T02:26:43;18.70;93.50
40516;DHT22;26216;53.724;9.898;2023-08-21T02:29:11;18.70;93.60
40516;DHT22;26216;53.724;9.898;2023-08-21T02:31:37;18.80;93.70
40516;DHT22;26216;53.724;9.898;2023-08-21T02:34:03;18.80;93.80
40516;DHT22;26216;53.724;9.898;2023-08-21T02:36:28;18.80;93.90
40516;DHT22;26216;53.724;9.898;2023-08-21T02:38:55;18.80;93.90
40516;DHT22;26216;53.724;9.898;2023-08-21T02:41:21;18.80;94.00
40516;DHT22;26216;53.724;9.898;2023-08-21T02:43:47;18.80;94.00
40516;DHT22;26216;53.724;9.898;2023-08-21T02:46:13;18.80;94.10
40516;DHT22;26216;53.724;9.898;2023-08-21T02:48:39;18.80;94.20
40516;DHT22;26216;53.724;9.898;2023-08-21T02:51:04;18.80;94.20
40516;DHT22;26216;53.724;9.898;2023-08-21T02:53:30;18.80;94.20
40516;DHT22;26216;53.724;9.898;2023-08-21T02:55:56;18.80;94.20
40516;DHT22;26216;53.724;9.898;2023-08-21T02:58:22;18.80;94.20
40516;DHT22;26216;53.724;9.898;2023-08-21T03:00:48;18.80;94.20
40516;DHT22;26216;53.724;9.898;2023-08-21T03:03:14;18.80;94.20
40516;DHT22;26216;53.724;9.898;2023-08-21T03:05:40;18.80;94.20
40516;DHT22;26216;53.724;9.898;2023-08-21T03:08:05;18.80;94.10
40516;DHT22;26216;53.724;9.898;2023-08-21T03:10:31;18.70;94.10
40516;DHT22;26216;53.724;9.898;2023-08-21T03:13:00;18.70;94.10
40516;DHT22;26216;53.724;9.898;2023-08-21T03:15:26;18.70;94.10
40516;DHT22;26216;53.724;9.898;2023-08-21T03:17:52;18.70;94.10
40516;DHT22;26216;53.724;9.898;2023-08-21T03:20:18;18.70;94.10
40516;DHT22;26216;53.724;9.898;2023-08-21T03:22:43;18.60;94.10
40516;DHT22;26216;53.724;9.898;2023-08-21T03:25:09;18.60;94.10
40516;DHT22;26216;53.724;9.898;2023-08-21T03:27:35;18.60;94.10
40516;DHT22;26216;53.724;9.898;2023-08-21T03:30:08;18.60;94.10
40516;DHT22;26216;53.724;9.898;2023-08-21T03:32:34;18.50;94.10
40516;DHT22;26216;53.724;9.898;2023-08-21T03:35:00;18.50;94.10
40516;DHT22;26216;53.724;9.898;2023-08-21T03:37:26;18.50;94.10
40516;DHT22;26216;53.724;9.898;2023-08-21T03:39:51;18.40;94.10
40516;DHT22;26216;53.724;9.898;2023-08-21T03:42:17;18.40;94.20
40516;DHT22;26216;53.724;9.898;2023-08-21T03:44:43;18.40;94.20
40516;DHT22;26216;53.724;9.898;2023-08-21T03:47:09;18.40;94.20
40516;DHT22;26216;53.724;9.898;2023-08-21T03:49:36;18.40;94.30
40516;DHT22;26216;53.724;9.898;2023-08-21T03:52:02;18.40;94.40
40516;DHT22;26216;53.724;9.898;2023-08-21T03:54:27;18.40;94.30
40516;DHT22;26216;53.724;9.898;2023-08-21T03:56:53;18.40;94.30
40516;DHT22;26216;53.724;9.898;2023-08-21T03:59:19;18.30;94.30
40516;DHT22;26216;53.724;9.898;2023-08-21T04:01:45;18.30;94.30
40516;DHT22;26216;53.724;9.898;2023-08-21T04:04:11;18.30;94.30
40516;DHT22;26216;53.724;9.898;2023-08-21T04:06:36;18.30;94.20
40516;DHT22;26216;53.724;9.898;2023-08-21T04:09:02;18.20;94.30
40516;DHT22;26216;53.724;9.898;2023-08-21T04:11:32;18.20;94.30
40516;DHT22;26216;53.724;9.898;2023-08-21T04:13:58;18.20;94.30
40516;DHT22;26216;53.724;9.898;2023-08-21T04:16:24;18.20;94.40
40516;DHT22;26216;53.724;9.898;2023-08-21T04:18:50;18.20;94.40
40516;DHT22;26216;53.724;9.898;2023-08-21T04:21:16;18.20;94.40
40516;DHT22;26216;53.724;9.898;2023-08-21T04:23:43;18.20;94.50
40516;DHT22;26216;53.724;9.898;2023-08-21T04:26:09;18.20;94.50
40516;DHT22;26216;53.724;9.898;2023-08-21T04:28:36;18.20;94.50
40516;DHT22;26216;53.724;9.898;2023-08-21T04:31:07;18.20;94.60
40516;DHT22;26216;53.724;9.898;2023-08-21T04:33:34;18.10;94.60
40516;DHT22;26216;53.724;9.898;2023-08-21T04:36:01;18.20;94.70
40516;DHT22;26216;53.724;9.898;2023-08-21T04:38:27;18.20;94.80
40516;DHT22;26216;53.724;9.898;2023-08-21T04:40:52;18.20;94.80
40516;DHT22;26216;53.724;9.898;2023-08-21T04:43:18;18.20;94.80
40516;DHT22;26216;53.724;9.898;2023-08-21T04:45:48;18.20;94.90
40516;DHT22;26216;53.724;9.898;2023-08-21T04:48:15;18.20;94.90
40516;DHT22;26216;53.724;9.898;2023-08-21T04:50:41;18.20;94.90
40516;DHT22;26216;53.724;9.898;2023-08-21T04:53:07;18.20;94.90
40516;DHT22;26216;53.724;9.898;2023-08-21T04:55:33;18.20;94.90
40516;DHT22;26216;53.724;9.898;2023-08-21T04:57:59;18.20;95.00
40516;DHT22;26216;53.724;9.898;2023-08-21T05:00:24;18.20;95.00
40516;DHT22;26216;53.724;9.898;2023-08-21T05:02:50;18.30;95.10
40516;DHT22;26216;53.724;9.898;2023-08-21T05:05:16;18.30;95.20
40516;DHT22;26216;53.724;9.898;2023-08-21T05:07:42;18.30;95.20
40516;DHT22;26216;53.724;9.898;2023-08-21T05:10:08;18.40;95.30
40516;DHT22;26216;53.724;9.898;2023-08-21T05:12:34;18.40;95.30
40516;DHT22;26216;53.724;9.898;2023-08-21T05:15:00;18.40;95.40
40516;DHT22;26216;53.724;9.898;2023-08-21T05:17:26;18.40;95.50
40516;DHT22;26216;53.724;9.898;2023-08-21T05:19:52;18.40;95.60
40516;DHT22;26216;53.724;9.898;2023-08-21T05:22:18;18.50;95.60
40516;DHT22;26216;53.724;9.898;2023-08-21T05:24:44;18.50;95.70
40516;DHT22;26216;53.724;9.898;2023-08-21T05:27:10;18.50;95.80
40516;DHT22;26216;53.724;9.898;2023-08-21T05:29:35;18.60;95.90
40516;DHT22;26216;53.724;9.898;2023-08-21T05:32:01;18.70;96.00
40516;DHT22;26216;53.724;9.898;2023-08-21T05:34:27;18.70;96.10
40516;DHT22;26216;53.724;9.898;2023-08-21T05:36:53;18.70;96.20
40516;DHT22;26216;53.724;9.898;2023-08-21T05:39:20;18.80;96.30
40516;DHT22;26216;53.724;9.898;2023-08-21T05:41:46;18.90;96.40
40516;DHT22;26216;53.724;9.898;2023-08-21T05:44:12;18.90;96.50
40516;DHT22;26216;53.724;9.898;2023-08-21T05:46:38;19.00;96.60
40516;DHT22;26216;53.724;9.898;2023-08-21T05:49:04;19.10;96.70
40516;DHT22;26216;53.724;9.898;2023-08-21T05:51:30;19.20;96.80
40516;DHT22;26216;53.724;9.898;2023-08-21T05:53:56;19.20;97.00
40516;DHT22;26216;53.724;9.898;2023-08-21T05:56:22;19.30;97.00
40516;DHT22;26216;53.724;9.898;2023-08-21T05:58:49;19.40;97.20
40516;DHT22;26216;53.724;9.898;2023-08-21T06:01:15;19.50;97.40
40516;DHT22;26216;53.724;9.898;2023-08-21T06:03:41;19.60;97.50
40516;DHT22;26216;53.724;9.898;2023-08-21T06:06:07;19.70;97.60
40516;DHT22;26216;53.724;9.898;2023-08-21T06:08:33;19.80;97.90
40516;DHT22;26216;53.724;9.898;2023-08-21T06:10:59;19.80;98.00
40516;DHT22;26216;53.724;9.898;2023-08-21T06:13:25;20.00;98.10
40516;DHT22;26216;53.724;9.898;2023-08-21T06:15:51;20.10;98.10
40516;DHT22;26216;53.724;9.898;2023-08-21T06:18:17;20.20;98.30
40516;DHT22;26216;53.724;9.898;2023-08-21T06:20:43;20.30;98.50
40516;DHT22;26216;53.724;9.898;2023-08-21T06:23:10;20.40;98.40
40516;DHT22;26216;53.724;9.898;2023-08-21T06:25:36;20.60;98.40
40516;DHT22;26216;53.724;9.898;2023-08-21T06:28:03;20.70;98.40
40516;DHT22;26216;53.724;9.898;2023-08-21T06:30:28;20.80;98.50
40516;DHT22;26216;53.724;9.898;2023-08-21T06:32:55;20.90;98.70
40516;DHT22;26216;53.724;9.898;2023-08-21T06:35:21;21.00;98.60
40516;DHT22;26216;53.724;9.898;2023-08-21T06:37:47;21.10;98.50
40516;DHT22;26216;53.724;9.898;2023-08-21T06:40:12;21.30;98.50
40516;DHT22;26216;53.724;9.898;2023-08-21T06:42:38;21.40;98.50
40516;DHT22;26216;53.724;9.898;2023-08-21T06:45:05;21.50;98.50
40516;DHT22;26216;53.724;9.898;2023-08-21T06:47:31;21.60;98.50
40516;DHT22;26216;53.724;9.898;2023-08-21T06:49:57;21.70;98.50
40516;DHT22;26216;53.724;9.898;2023-08-21T06:52:23;21.80;98.30
40516;DHT22;26216;53.724;9.898;2023-08-21T06:54:49;21.90;98.40
40516;DHT22;26216;53.724;9.898;2023-08-21T06:57:15;22.00;98.30
40516;DHT22;26216;53.724;9.898;2023-08-21T06:59:41;22.10;98.40
40516;DHT22;26216;53.724;9.898;2023-08-21T07:02:06;22.20;98.20
40516;DHT22;26216;53.724;9.898;2023-08-21T07:04:32;22.20;98.20
40516;DHT22;26216;53.724;9.898;2023-08-21T07:06:59;22.30;98.00
40516;DHT22;26216;53.724;9.898;2023-08-21T07:09:25;22.40;98.00
40516;DHT22;26216;53.724;9.898;2023-08-21T07:11:51;22.40;97.80
40516;DHT22;26216;53.724;9.898;2023-08-21T07:14:17;22.50;97.80
40516;DHT22;26216;53.724;9.898;2023-08-21T07:16:43;22.50;97.80
40516;DHT22;26216;53.724;9.898;2023-08-21T07:19:09;22.60;97.60
40516;DHT22;26216;53.724;9.898;2023-08-21T07:21:35;22.60;97.10
40516;DHT22;26216;53.724;9.898;2023-08-21T07:24:02;22.70;97.10
40516;DHT22;26216;53.724;9.898;2023-08-21T07:26:29;22.70;97.40
40516;DHT22;26216;53.724;9.898;2023-08-21T07:28:55;22.70;96.70
40516;DHT22;26216;53.724;9.898;2023-08-21T07:31:20;22.80;96.90
40516;DHT22;26216;53.724;9.898;2023-08-21T07:33:46;22.80;96.90
40516;DHT22;26216;53.724;9.898;2023-08-21T07:36:12;22.90;96.90
40516;DHT22;26216;53.724;9.898;2023-08-21T07:38:43;23.00;97.00
40516;DHT22;26216;53.724;9.898;2023-08-21T07:41:10;23.00;96.60
40516;DHT22;26216;53.724;9.898;2023-08-21T07:43:37;23.10;96.60
40516;DHT22;26216;53.724;9.898;2023-08-21T07:46:07;23.20;96.20
40516;DHT22;26216;53.724;9.898;2023-08-21T07:48:33;23.20;96.10
40516;DHT22;26216;53.724;9.898;2023-08-21T07:50:59;23.30;96.30
40516;DHT22;26216;53.724;9.898;2023-08-21T07:53:27;23.30;96.20
40516;DHT22;26216;53.724;9.898;2023-08-21T07:55:53;23.40;95.90
40516;DHT22;26216;53.724;9.898;2023-08-21T07:58:19;23.40;95.60
40516;DHT22;26216;53.724;9.898;2023-08-21T08:00:45;23.50;95.50
40516;DHT22;26216;53.724;9.898;2023-08-21T08:03:11;23.50;95.50
40516;DHT22;26216;53.724;9.898;2023-08-21T08:05:40;23.60;95.70
40516;DHT22;26216;53.724;9.898;2023-08-21T08:08:06;23.70;95.10
40516;DHT22;26216;53.724;9.898;2023-08-21T08:10:31;23.70;94.80
40516;DHT22;26216;53.724;9.898;2023-08-21T08:12:57;23.70;94.70
40516;DHT22;26216;53.724;9.898;2023-08-21T08:15:23;23.80;94.90
40516;DHT22;26216;53.724;9.898;2023-08-21T08:17:49;23.90;93.70
40516;DHT22;26216;53.724;9.898;2023-08-21T08:20:19;23.90;94.10
40516;DHT22;26216;53.724;9.898;2023-08-21T08:22:45;23.90;94.50
40516;DHT22;26216;53.724;9.898;2023-08-21T08:25:14;24.00;94.40
40516;DHT22;26216;53.724;9.898;2023-08-21T08:27:40;24.10;93.70
40516;DHT22;26216;53.724;9.898;2023-08-21T08:30:06;24.10;93.60
40516;DHT22;26216;53.724;9.898;2023-08-21T08:32:32;24.20;93.80
40516;DHT22;26216;53.724;9.898;2023-08-21T08:34:58;24.30;93.10
40516;DHT22;26216;53.724;9.898;2023-08-21T08:37:24;24.30;92.80
40516;DHT22;26216;53.724;9.898;2023-08-21T08:39:50;24.30;93.40
40516;DHT22;26216;53.724;9.898;2023-08-21T08:42:16;24.40;93.10
40516;DHT22;26216;53.724;9.898;2023-08-21T08:44:43;24.40;93.10
40516;DHT22;26216;53.724;9.898;2023-08-21T08:47:11;24.50;93.20
40516;DHT22;26216;53.724;9.898;2023-08-21T08:49:37;24.60;92.30
40516;DHT22;26216;53.724;9.898;2023-08-21T08:52:04;24.60;92.50
40516;DHT22;26216;53.724;9.898;2023-08-21T08:54:31;24.70;92.70
40516;DHT22;26216;53.724;9.898;2023-08-21T08:56:57;24.70;91.90
40516;DHT22;26216;53.724;9.898;2023-08-21T08:59:23;24.80;92.00
40516;DHT22;26216;53.724;9.898;2023-08-21T09:01:49;24.90;92.40
40516;DHT22;26216;53.724;9.898;2023-08-21T09:04:15;24.90;92.00
40516;DHT22;26216;53.724;9.898;2023-08-21T09:06:41;24.90;92.00
40516;DHT22;26216;53.724;9.898;2023-08-21T09:09:08;25.00;91.70
40516;DHT22;26216;53.724;9.898;2023-08-21T09:11:39;25.10;92.00
40516;DHT22;26216;53.724;9.898;2023-08-21T09:14:07;25.20;91.60
40516;DHT22;26216;53.724;9.898;2023-08-21T09:16:33;25.20;91.60
40516;DHT22;26216;53.724;9.898;2023-08-21T09:18:59;25.30;91.10
40516;DHT22;26216;53.724;9.898;2023-08-21T09:21:26;25.30;90.90
40516;DHT22;26216;53.724;9.898;2023-08-21T09:23:57;25.30;91.20
40516;DHT22;26216;53.724;9.898;2023-08-21T09:26:24;25.30;91.40
40516;DHT22;26216;53.724;9.898;2023-08-21T09:28:52;25.40;91.40
40516;DHT22;26216;53.724;9.898;2023-08-21T09:31:30;25.40;91.10
40516;DHT22;26216;53.724;9.898;2023-08-21T09:33:58;25.40;90.90
40516;DHT22;26216;53.724;9.898;2023-08-21T09:36:24;25.40;91.00
40516;DHT22;26216;53.724;9.898;2023-08-21T09:38:51;25.50;91.30
40516;DHT22;26216;53.724;9.898;2023-08-21T09:41:21;25.50;91.30
40516;DHT22;26216;53.724;9.898;2023-08-21T09:43:47;25.60;90.90
40516;DHT22;26216;53.724;9.898;2023-08-21T09:46:17;25.60;90.10
40516;DHT22;26216;53.724;9.898;2023-08-21T09:48:44;25.60;90.20
40516;DHT22;26216;53.724;9.898;2023-08-21T09:51:11;25.60;90.40
40516;DHT22;26216;53.724;9.898;2023-08-21T09:53:37;25.70;90.40
40516;DHT22;26216;53.724;9.898;2023-08-21T09:56:05;25.70;90.70
40516;DHT22;26216;53.724;9.898;2023-08-21T09:58:31;25.80;89.50
40516;DHT22;26216;53.724;9.898;2023-08-21T10:00:58;25.80;90.20
40516;DHT22;26216;53.724;9.898;2023-08-21T10:03:26;25.80;90.20
40516;DHT22;26216;53.724;9.898;2023-08-21T10:05:55;25.90;87.80
40516;DHT22;26216;53.724;9.898;2023-08-21T10:08:24;25.90;87.30
40516;DHT22;26216;53.724;9.898;2023-08-21T10:10:51;25.90;87.10
40516;DHT22;26216;53.724;9.898;2023-08-21T10:13:18;25.90;87.40
40516;DHT22;26216;53.724;9.898;2023-08-21T10:15:44;25.90;87.80
40516;DHT22;26216;53.724;9.898;2023-08-21T10:18:18;25.90;87.90
40516;DHT22;26216;53.724;9.898;2023-08-21T10:20:45;25.90;86.60
40516;DHT22;26216;53.724;9.898;2023-08-21T10:23:27;25.90;85.80
40516;DHT22;26216;53.724;9.898;2023-08-21T10:25:57;25.90;85.00
40516;DHT22;26216;53.724;9.898;2023-08-21T10:28:23;25.90;85.40
40516;DHT22;26216;53.724;9.898;2023-08-21T10:30:49;25.90;86.00
40516;DHT22;26216;53.724;9.898;2023-08-21T10:33:15;26.00;87.00
40516;DHT22;26216;53.724;9.898;2023-08-21T10:35:41;26.00;85.70
40516;DHT22;26216;53.724;9.898;2023-08-21T10:38:15;26.10;86.20
40516;DHT22;26216;53.724;9.898;2023-08-21T10:41:08;26.10;87.10
40516;DHT22;26216;53.724;9.898;2023-08-21T10:43:46;26.10;84.00
40516;DHT22;26216;53.724;9.898;2023-08-21T10:46:15;26.20;84.50
40516;DHT22;26216;53.724;9.898;2023-08-21T10:48:42;26.30;85.00
40516;DHT22;26216;53.724;9.898;2023-08-21T10:51:09;26.30;84.10
40516;DHT22;26216;53.724;9.898;2023-08-21T10:53:36;26.40;83.50
40516;DHT22;26216;53.724;9.898;2023-08-21T10:56:05;26.40;84.50
40516;DHT22;26216;53.724;9.898;2023-08-21T10:58:50;26.40;83.90
40516;DHT22;26216;53.724;9.898;2023-08-21T11:01:17;26.50;79.40
40516;DHT22;26216;53.724;9.898;2023-08-21T11:03:52;26.50;82.50
40516;DHT22;26216;53.724;9.898;2023-08-21T11:06:19;26.50;82.50
40516;DHT22;26216;53.724;9.898;2023-08-21T11:08:45;26.60;82.80
40516;DHT22;26216;53.724;9.898;2023-08-21T11:11:12;26.60;83.00
40516;DHT22;26216;53.724;9.898;2023-08-21T11:13:38;26.60;82.20
40516;DHT22;26216;53.724;9.898;2023-08-21T11:16:05;26.60;81.80
40516;DHT22;26216;53.724;9.898;2023-08-21T11:18:36;26.60;79.20
40516;DHT22;26216;53.724;9.898;2023-08-21T11:21:07;26.70;79.00
40516;DHT22;26216;53.724;9.898;2023-08-21T11:23:38;26.60;80.00
40516;DHT22;26216;53.724;9.898;2023-08-21T11:26:05;26.60;80.90
40516;DHT22;26216;53.724;9.898;2023-08-21T11:28:31;26.70;80.20
40516;DHT22;26216;53.724;9.898;2023-08-21T11:30:58;26.70;78.20
40516;DHT22;26216;53.724;9.898;2023-08-21T11:33:26;26.70;79.60
40516;DHT22;26216;53.724;9.898;2023-08-21T11:35:52;26.70;79.60
40516;DHT22;26216;53.724;9.898;2023-08-21T11:38:24;26.70;80.00
40516;DHT22;26216;53.724;9.898;2023-08-21T11:41:01;26.80;80.60
40516;DHT22;26216;53.724;9.898;2023-08-21T11:43:42;26.80;77.60
40516;DHT22;26216;53.724;9.898;2023-08-21T11:46:09;26.80;77.50
40516;DHT22;26216;53.724;9.898;2023-08-21T11:48:40;26.90;78.60
40516;DHT22;26216;53.724;9.898;2023-08-21T11:51:07;27.00;78.10
40516;DHT22;26216;53.724;9.898;2023-08-21T11:53:40;27.00;78.40
40516;DHT22;26216;53.724;9.898;2023-08-21T11:56:12;27.00;79.70
40516;DHT22;26216;53.724;9.898;2023-08-21T11:58:43;27.10;77.10
40516;DHT22;26216;53.724;9.898;2023-08-21T12:01:11;27.10;78.60
40516;DHT22;26216;53.724;9.898;2023-08-21T12:03:41;27.20;78.10
40516;DHT22;26216;53.724;9.898;2023-08-21T12:06:11;27.30;77.20
40516;DHT22;26216;53.724;9.898;2023-08-21T12:08:38;27.30;77.10
40516;DHT22;26216;53.724;9.898;2023-08-21T12:11:05;27.30;77.00
40516;DHT22;26216;53.724;9.898;2023-08-21T12:13:32;27.30;74.80
40516;DHT22;26216;53.724;9.898;2023-08-21T12:15:58;27.40;76.10
40516;DHT22;26216;53.724;9.898;2023-08-21T12:18:24;27.30;75.60
40516;DHT22;26216;53.724;9.898;2023-08-21T12:20:50;27.30;75.90
40516;DHT22;26216;53.724;9.898;2023-08-21T12:23:17;27.20;74.40
40516;DHT22;26216;53.724;9.898;2023-08-21T12:25:43;27.20;75.80
40516;DHT22;26216;53.724;9.898;2023-08-21T12:28:09;27.20;75.70
40516;DHT22;26216;53.724;9.898;2023-08-21T12:30:35;27.30;76.50
40516;DHT22;26216;53.724;9.898;2023-08-21T12:33:01;27.30;74.90
40516;DHT22;26216;53.724;9.898;2023-08-21T12:35:26;27.30;76.80
40516;DHT22;26216;53.724;9.898;2023-08-21T12:37:57;27.30;76.20
40516;DHT22;26216;53.724;9.898;2023-08-21T12:40:24;27.40;75.80
40516;DHT22;26216;53.724;9.898;2023-08-21T12:42:50;27.40;75.90
40516;DHT22;26216;53.724;9.898;2023-08-21T12:45:16;27.50;74.30
40516;DHT22;26216;53.724;9.898;2023-08-21T12:47:42;27.50;72.80
40516;DHT22;26216;53.724;9.898;2023-08-21T12:50:09;27.50;72.90
40516;DHT22;26216;53.724;9.898;2023-08-21T12:52:35;27.50;72.50
40516;DHT22;26216;53.724;9.898;2023-08-21T12:55:01;27.50;72.20
40516;DHT22;26216;53.724;9.898;2023-08-21T12:57:30;27.60;73.10
40516;DHT22;26216;53.724;9.898;2023-08-21T12:59:56;27.60;72.80
40516;DHT22;26216;53.724;9.898;2023-08-21T13:02:22;27.60;73.70
40516;DHT22;26216;53.724;9.898;2023-08-21T13:04:49;27.70;75.10
40516;DHT22;26216;53.724;9.898;2023-08-21T13:07:15;27.80;73.10
40516;DHT22;26216;53.724;9.898;2023-08-21T13:09:40;27.80;71.70
40516;DHT22;26216;53.724;9.898;2023-08-21T13:12:07;27.90;72.30
40516;DHT22;26216;53.724;9.898;2023-08-21T13:14:34;27.90;73.70
40516;DHT22;26216;53.724;9.898;2023-08-21T13:17:00;27.90;70.70
40516;DHT22;26216;53.724;9.898;2023-08-21T13:19:26;28.00;71.30
40516;DHT22;26216;53.724;9.898;2023-08-21T13:21:51;28.00;70.70
40516;DHT22;26216;53.724;9.898;2023-08-21T13:24:20;27.90;69.40
40516;DHT22;26216;53.724;9.898;2023-08-21T13:26:46;28.00;71.00
40516;DHT22;26216;53.724;9.898;2023-08-21T13:29:12;28.00;70.40
40516;DHT22;26216;53.724;9.898;2023-08-21T13:31:39;28.00;70.50
40516;DHT22;26216;53.724;9.898;2023-08-21T13:34:05;28.00;70.90
40516;DHT22;26216;53.724;9.898;2023-08-21T13:36:31;28.10;69.90
40516;DHT22;26216;53.724;9.898;2023-08-21T13:38:57;28.00;69.00
40516;DHT22;26216;53.724;9.898;2023-08-21T13:41:23;28.10;69.60
40516;DHT22;26216;53.724;9.898;2023-08-21T13:43:48;28.10;70.10
40516;DHT22;26216;53.724;9.898;2023-08-21T13:46:14;28.10;69.80
40516;DHT22;26216;53.724;9.898;2023-08-21T13:48:41;28.10;69.80
40516;DHT22;26216;53.724;9.898;2023-08-21T13:51:09;28.20;70.40
40516;DHT22;26216;53.724;9.898;2023-08-21T13:53:35;28.20;69.10
40516;DHT22;26216;53.724;9.898;2023-08-21T13:56:01;28.20;68.30
40516;DHT22;26216;53.724;9.898;2023-08-21T13:58:27;28.20;68.40
40516;DHT22;26216;53.724;9.898;2023-08-21T14:00:53;28.10;66.70
40516;DHT22;26216;53.724;9.898;2023-08-21T14:03:21;28.10;66.90
40516;DHT22;26216;53.724;9.898;2023-08-21T14:05:47;28.10;68.90
40516;DHT22;26216;53.724;9.898;2023-08-21T14:08:13;28.10;66.60
40516;DHT22;26216;53.724;9.898;2023-08-21T14:10:38;28.10;69.20
40516;DHT22;26216;53.724;9.898;2023-08-21T14:13:04;28.10;67.50
40516;DHT22;26216;53.724;9.898;2023-08-21T14:15:34;28.10;65.00
40516;DHT22;26216;53.724;9.898;2023-08-21T14:18:00;28.10;66.20
40516;DHT22;26216;53.724;9.898;2023-08-21T14:20:25;28.10;67.10
40516;DHT22;26216;53.724;9.898;2023-08-21T14:22:51;28.10;67.90
40516;DHT22;26216;53.724;9.898;2023-08-21T14:25:18;28.20;68.70
40516;DHT22;26216;53.724;9.898;2023-08-21T14:27:43;28.20;68.60
40516;DHT22;26216;53.724;9.898;2023-08-21T14:30:10;28.30;67.50
40516;DHT22;26216;53.724;9.898;2023-08-21T14:32:36;28.30;68.30
40516;DHT22;26216;53.724;9.898;2023-08-21T14:35:03;28.30;67.70
40516;DHT22;26216;53.724;9.898;2023-08-21T14:37:29;28.40;66.70
40516;DHT22;26216;53.724;9.898;2023-08-21T14:39:55;28.40;65.90
40516;DHT22;26216;53.724;9.898;2023-08-21T14:42:21;28.40;67.30
40516;DHT22;26216;53.724;9.898;2023-08-21T14:44:47;28.40;67.90
40516;DHT22;26216;53.724;9.898;2023-08-21T14:47:13;28.40;67.10
40516;DHT22;26216;53.724;9.898;2023-08-21T14:49:39;28.40;66.30
40516;DHT22;26216;53.724;9.898;2023-08-21T14:52:05;28.40;65.30
40516;DHT22;26216;53.724;9.898;2023-08-21T14:54:33;28.40;65.30
40516;DHT22;26216;53.724;9.898;2023-08-21T14:57:00;28.40;65.80
40516;DHT22;26216;53.724;9.898;2023-08-21T14:59:26;28.40;65.10
40516;DHT22;26216;53.724;9.898;2023-08-21T15:01:52;28.40;65.70
40516;DHT22;26216;53.724;9.898;2023-08-21T15:04:23;28.50;67.10
40516;DHT22;26216;53.724;9.898;2023-08-21T15:07:01;28.50;65.20
40516;DHT22;26216;53.724;9.898;2023-08-21T15:09:27;28.50;65.80
40516;DHT22;26216;53.724;9.898;2023-08-21T15:11:53;28.60;65.60
40516;DHT22;26216;53.724;9.898;2023-08-21T15:14:19;28.60;65.80
40516;DHT22;26216;53.724;9.898;2023-08-21T15:16:45;28.70;66.90
40516;DHT22;26216;53.724;9.898;2023-08-21T15:19:11;28.70;66.00
40516;DHT22;26216;53.724;9.898;2023-08-21T15:21:37;28.70;66.40
40516;DHT22;26216;53.724;9.898;2023-08-21T15:24:03;28.70;66.00
40516;DHT22;26216;53.724;9.898;2023-08-21T15:26:29;28.80;66.00
40516;DHT22;26216;53.724;9.898;2023-08-21T15:28:55;28.80;65.70